Time;durP1;ratioP1;P1;durP2;ratioP2;P2;SDS_P1;SDS_P2;PMS_P1;PMS_P2;Temp;Humidity;BMP_temperature;BMP_pressure;BME280_temperature;BME280_humidity;BME280_pressure;Samples;Min_cycle;Max_cycle;Signal;HPM_P1;HPM_P2
2021/01/12 00:00:34;;;;;;;;;;;2.30;99.90;;;;;;5059207;28;19913;-73
2021/01/12 00:03:00;;;;;;;;;;;2.30;99.90;;;;;;5058088;28;20003;-72
2021/01/12 00:05:26;;;;;;;;;;;2.30;99.90;;;;;;5063053;28;20273;-72
2021/01/12 00:07:52;;;;;;;;;;;2.30;99.90;;;;;;5055237;28;19909;-72
2021/01/12 00:10:21;;;;;;;;;;;2.20;99.90;;;;;;5067965;28;19904;-72
2021/01/12 00:12:47;;;;;;;;;;;2.20;99.90;;;;;;5066470;28;19921;-72
2021/01/12 00:15:13;;;;;;;;;;;2.10;99.90;;;;;;5062076;28;19908;-71
2021/01/12 00:17:39;;;;;;;;;;;2.10;99.90;;;;;;5061855;28;19917;-72
2021/01/12 00:20:06;;;;;;;;;;;2.00;99.90;;;;;;5058989;28;19908;-71
2021/01/12 00:22:32;;;;;;;;;;;2.00;99.90;;;;;;5059654;28;19912;-71
2021/01/12 00:24:58;;;;;;;;;;;2.00;99.90;;;;;;5063848;28;19944;-71
2021/01/12 00:27:24;;;;;;;;;;;2.00;99.90;;;;;;5063752;28;19936;-71
2021/01/12 00:29:50;;;;;;;;;;;1.90;99.90;;;;;;5054228;28;20034;-71
2021/01/12 00:32:16;;;;;;;;;;;1.90;99.90;;;;;;5052534;28;20007;-71
2021/01/12 00:34:42;;;;;;;;;;;1.80;99.90;;;;;;5056336;28;19919;-71
2021/01/12 00:37:08;;;;;;;;;;;1.80;99.90;;;;;;5056860;28;19921;-71
2021/01/12 00:39:34;;;;;;;;;;;1.70;99.90;;;;;;5054333;28;19917;-71
2021/01/12 00:42:00;;;;;;;;;;;1.70;99.90;;;;;;5052503;28;19919;-72
2021/01/12 00:44:26;;;;;;;;;;;1.60;99.90;;;;;;5066396;28;19912;-71
2021/01/12 00:46:52;;;;;;;;;;;1.60;99.90;;;;;;5066064;28;19924;-71
2021/01/12 00:49:19;;;;;;;;;;;1.60;99.90;;;;;;5045792;28;19913;-72
2021/01/12 00:51:45;;;;;;;;;;;1.50;99.90;;;;;;5052203;28;19916;-71
2021/01/12 00:54:12;;;;;;;;;;;1.50;99.90;;;;;;5053653;28;19917;-71
2021/01/12 00:56:38;;;;;;;;;;;1.40;99.90;;;;;;5059557;28;19935;-71
2021/01/12 00:59:04;;;;;;;;;;;1.40;99.90;;;;;;5060489;28;20429;-71
2021/01/12 01:01:30;;;;;;;;;;;1.30;99.90;;;;;;5065494;28;19915;-71
2021/01/12 01:03:56;;;;;;;;;;;1.30;99.90;;;;;;5065792;28;19916;-72
2021/01/12 01:06:22;;;;;;;;;;;1.30;99.90;;;;;;5065279;28;19908;-72
2021/01/12 01:08:48;;;;;;;;;;;1.20;99.90;;;;;;5058731;28;19920;-71
2021/01/12 01:11:14;;;;;;;;;;;1.20;99.90;;;;;;5053525;28;19916;-71
2021/01/12 01:13:40;;;;;;;;;;;1.10;99.90;;;;;;5052647;28;19908;-72
2021/01/12 01:16:06;;;;;;;;;;;1.10;99.90;;;;;;5053704;28;19912;-71
2021/01/12 01:18:32;;;;;;;;;;;1.10;99.90;;;;;;5053816;28;19917;-71
2021/01/12 01:20:58;;;;;;;;;;;1.00;99.90;;;;;;5052844;28;20285;-71
2021/01/12 01:23:24;;;;;;;;;;;1.00;99.90;;;;;;5053314;28;19927;-71
2021/01/12 01:25:51;;;;;;;;;;;1.00;99.90;;;;;;5051728;28;19912;-71
2021/01/12 01:28:17;;;;;;;;;;;0.90;99.90;;;;;;5057566;28;19923;-71
2021/01/12 01:30:43;;;;;;;;;;;0.80;99.90;;;;;;5056362;28;19913;-71
2021/01/12 01:33:09;;;;;;;;;;;0.80;99.90;;;;;;5061880;28;19908;-71
2021/01/12 01:35:35;;;;;;;;;;;0.80;99.90;;;;;;5058785;28;19909;-71
2021/01/12 01:38:01;;;;;;;;;;;0.80;99.90;;;;;;5051609;28;19917;-71
2021/01/12 01:40:27;;;;;;;;;;;0.80;99.90;;;;;;5053624;28;19905;-71
2021/01/12 01:42:53;;;;;;;;;;;0.80;99.90;;;;;;5057956;28;20353;-71
2021/01/12 01:45:19;;;;;;;;;;;0.80;99.90;;;;;;5052506;28;19913;-71
2021/01/12 01:47:45;;;;;;;;;;;0.70;99.90;;;;;;5054274;28;19908;-71
2021/01/12 01:50:12;;;;;;;;;;;0.70;99.90;;;;;;5054076;28;19932;-71
2021/01/12 01:52:38;;;;;;;;;;;0.70;99.90;;;;;;5053134;28;19924;-71
2021/01/12 01:55:04;;;;;;;;;;;0.70;99.90;;;;;;5061703;28;19920;-71
2021/01/12 01:57:30;;;;;;;;;;;0.70;99.90;;;;;;5061347;28;20280;-71
2021/01/12 01:59:56;;;;;;;;;;;0.60;99.90;;;;;;5064862;28;19905;-70
2021/01/12 02:02:22;;;;;;;;;;;0.60;99.90;;;;;;5055748;28;20057;-71
2021/01/12 02:04:48;;;;;;;;;;;0.60;99.90;;;;;;5053829;28;19920;-71
2021/01/12 02:07:14;;;;;;;;;;;0.60;99.90;;;;;;5054037;28;19912;-70
2021/01/12 02:09:47;;;;;;;;;;;0.70;99.90;;;;;;5052939;28;19920;-71
2021/01/12 02:12:33;;;;;;;;;;;0.60;99.90;;;;;;5052921;28;19912;-70
2021/01/12 02:14:59;;;;;;;;;;;0.60;99.90;;;;;;5052296;28;19916;-70
2021/01/12 02:17:28;;;;;;;;;;;0.60;99.90;;;;;;5052663;28;19917;-70
2021/01/12 02:19:54;;;;;;;;;;;0.60;99.90;;;;;;5053280;28;19912;-71
2021/01/12 02:22:20;;;;;;;;;;;0.60;99.90;;;;;;5050161;28;19912;-71
2021/01/12 02:24:47;;;;;;;;;;;0.60;99.90;;;;;;5050902;28;19913;-71
2021/01/12 02:27:22;;;;;;;;;;;0.50;99.90;;;;;;5050308;28;19927;-70
2021/01/12 02:29:49;;;;;;;;;;;0.60;99.90;;;;;;5050650;28;20300;-70
2021/01/12 02:32:18;;;;;;;;;;;0.60;99.90;;;;;;5050382;28;19908;-71
2021/01/12 02:34:44;;;;;;;;;;;0.50;99.90;;;;;;5044392;28;19917;-70
2021/01/12 02:37:11;;;;;;;;;;;0.50;99.90;;;;;;5051427;28;19919;-71
2021/01/12 02:39:37;;;;;;;;;;;0.50;99.90;;;;;;5052777;28;20388;-71
2021/01/12 02:42:12;;;;;;;;;;;0.50;99.90;;;;;;5052850;28;19913;-71
2021/01/12 02:44:38;;;;;;;;;;;0.50;99.90;;;;;;5052215;28;19904;-71
2021/01/12 02:47:03;;;;;;;;;;;0.50;99.90;;;;;;5052372;28;19913;-71
2021/01/12 02:49:29;;;;;;;;;;;0.40;99.90;;;;;;5057858;28;19912;-71
2021/01/12 02:51:55;;;;;;;;;;;0.50;99.90;;;;;;5058757;28;19909;-71
2021/01/12 02:54:21;;;;;;;;;;;0.50;99.90;;;;;;5060040;28;19951;-71
2021/01/12 02:56:47;;;;;;;;;;;0.50;99.90;;;;;;5069052;28;20393;-71
2021/01/12 02:59:13;;;;;;;;;;;0.40;99.90;;;;;;5065567;28;19916;-71
2021/01/12 03:01:39;;;;;;;;;;;0.40;99.90;;;;;;5062802;28;19915;-71
2021/01/12 03:04:05;;;;;;;;;;;0.40;99.90;;;;;;5064165;28;19916;-71
2021/01/12 03:06:31;;;;;;;;;;;0.40;99.90;;;;;;5060487;28;19917;-71
2021/01/12 03:08:57;;;;;;;;;;;0.40;99.90;;;;;;5051378;28;19925;-71
2021/01/12 03:11:24;;;;;;;;;;;0.30;99.90;;;;;;5062040;28;19913;-71
2021/01/12 03:13:51;;;;;;;;;;;0.30;99.90;;;;;;5066686;28;19912;-71
2021/01/12 03:16:17;;;;;;;;;;;0.30;99.90;;;;;;5060500;28;19905;-71
2021/01/12 03:18:43;;;;;;;;;;;0.30;99.90;;;;;;5056124;28;19959;-71
2021/01/12 03:21:09;;;;;;;;;;;0.40;99.90;;;;;;5055979;28;20289;-71
2021/01/12 03:23:35;;;;;;;;;;;0.30;99.90;;;;;;5055810;28;19913;-71
2021/01/12 03:26:01;;;;;;;;;;;0.30;99.90;;;;;;5057992;28;20349;-71
2021/01/12 03:28:27;;;;;;;;;;;0.30;99.90;;;;;;5059289;28;19909;-71
2021/01/12 03:30:53;;;;;;;;;;;0.30;99.90;;;;;;5056031;28;19909;-71
2021/01/12 03:33:19;;;;;;;;;;;0.30;99.90;;;;;;5055715;28;20007;-71
2021/01/12 03:35:44;;;;;;;;;;;0.30;99.90;;;;;;5056180;28;19915;-71
2021/01/12 03:38:10;;;;;;;;;;;0.30;99.90;;;;;;5055469;28;19917;-70
2021/01/12 03:40:36;;;;;;;;;;;0.30;99.90;;;;;;5056032;28;19912;-70
2021/01/12 03:43:02;;;;;;;;;;;0.30;99.90;;;;;;5055681;28;19909;-71
2021/01/12 03:45:28;;;;;;;;;;;0.30;99.90;;;;;;5062383;28;19943;-71
2021/01/12 03:47:54;;;;;;;;;;;0.30;99.90;;;;;;5063672;28;20353;-71
2021/01/12 03:50:20;;;;;;;;;;;0.20;99.90;;;;;;5055483;28;20369;-71
2021/01/12 03:52:46;;;;;;;;;;;0.20;99.90;;;;;;5055845;28;19916;-71
2021/01/12 03:55:12;;;;;;;;;;;0.20;99.90;;;;;;5055641;28;19919;-71
2021/01/12 03:57:38;;;;;;;;;;;0.20;99.90;;;;;;5054662;28;19921;-71
2021/01/12 04:00:04;;;;;;;;;;;0.20;99.90;;;;;;5068151;28;19912;-71
2021/01/12 04:02:30;;;;;;;;;;;0.20;99.90;;;;;;5062838;28;19915;-70
2021/01/12 04:04:56;;;;;;;;;;;0.10;99.90;;;;;;5075167;28;19916;-71
2021/01/12 04:07:22;;;;;;;;;;;0.10;99.90;;;;;;5067224;28;20363;-71
2021/01/12 04:09:51;;;;;;;;;;;0.20;99.90;;;;;;5058774;28;19928;-71
2021/01/12 04:12:17;;;;;;;;;;;0.20;99.90;;;;;;5060524;28;19936;-71
2021/01/12 04:14:43;;;;;;;;;;;0.20;99.90;;;;;;5073072;28;20369;-71
2021/01/12 04:17:09;;;;;;;;;;;0.20;99.90;;;;;;5075028;28;19912;-71
2021/01/12 04:19:35;;;;;;;;;;;0.20;99.90;;;;;;5071235;28;19965;-71
2021/01/12 04:22:01;;;;;;;;;;;0.20;99.90;;;;;;5054935;28;19927;-71
2021/01/12 04:24:27;;;;;;;;;;;0.20;99.90;;;;;;5054908;28;19939;-71
2021/01/12 04:26:53;;;;;;;;;;;0.20;99.90;;;;;;5060531;28;19970;-71
2021/01/12 04:29:19;;;;;;;;;;;0.10;99.90;;;;;;5056634;28;19939;-71
2021/01/12 04:31:45;;;;;;;;;;;0.10;99.90;;;;;;5056537;28;19917;-71
2021/01/12 04:34:11;;;;;;;;;;;0.20;99.90;;;;;;5058304;28;19927;-71
2021/01/12 04:36:37;;;;;;;;;;;0.10;99.90;;;;;;5056090;28;20328;-71
2021/01/12 04:39:03;;;;;;;;;;;0.20;99.90;;;;;;5066993;28;20395;-71
2021/01/12 04:41:29;;;;;;;;;;;0.10;99.90;;;;;;5052770;28;19919;-71
2021/01/12 04:43:55;;;;;;;;;;;0.20;99.90;;;;;;5056274;28;19916;-71
2021/01/12 04:46:21;;;;;;;;;;;0.20;99.90;;;;;;5055251;28;19931;-71
2021/01/12 04:48:48;;;;;;;;;;;0.10;99.90;;;;;;5071682;28;20048;-71
2021/01/12 04:51:14;;;;;;;;;;;0.20;99.90;;;;;;5068739;28;19912;-71
2021/01/12 04:53:46;;;;;;;;;;;0.10;99.90;;;;;;5057634;28;19921;-71
2021/01/12 04:56:21;;;;;;;;;;;0.20;99.90;;;;;;5054939;28;20362;-71
2021/01/12 04:58:51;;;;;;;;;;;0.10;99.90;;;;;;5052481;28;19922;-71
2021/01/12 05:01:18;;;;;;;;;;;0.10;99.90;;;;;;5062541;28;20392;-71
2021/01/12 05:03:47;;;;;;;;;;;0.10;99.90;;;;;;5054748;28;19916;-71
2021/01/12 05:06:13;;;;;;;;;;;0.00;99.90;;;;;;5052843;28;19904;-71
2021/01/12 05:08:40;;;;;;;;;;;0.10;99.90;;;;;;5056944;28;19916;-71
2021/01/12 05:11:06;;;;;;;;;;;0.00;99.90;;;;;;5054216;28;20263;-71
2021/01/12 05:13:32;;;;;;;;;;;-0.10;99.90;;;;;;5052657;28;19965;-71
2021/01/12 05:15:58;;;;;;;;;;;-0.10;99.90;;;;;;5052798;28;19912;-71
2021/01/12 05:18:24;;;;;;;;;;;-0.10;99.90;;;;;;5052659;28;20007;-71
2021/01/12 05:20:50;;;;;;;;;;;0.00;99.90;;;;;;5053102;28;20304;-71
2021/01/12 05:23:22;;;;;;;;;;;-0.10;99.90;;;;;;5052356;28;19912;-70
2021/01/12 05:25:48;;;;;;;;;;;-0.10;99.90;;;;;;5060325;28;19908;-70
2021/01/12 05:28:16;;;;;;;;;;;-0.10;99.90;;;;;;5059266;28;20286;-70
2021/01/12 05:30:42;;;;;;;;;;;-0.10;99.90;;;;;;5067372;28;19908;-70
2021/01/12 05:33:08;;;;;;;;;;;-0.10;99.90;;;;;;5053261;28;20324;-70
2021/01/12 05:35:38;;;;;;;;;;;-0.20;99.90;;;;;;5053566;28;20534;-70
2021/01/12 05:38:04;;;;;;;;;;;-0.30;99.90;;;;;;5053813;28;20280;-70
2021/01/12 05:40:31;;;;;;;;;;;-0.10;99.90;;;;;;5053259;28;19917;-70
2021/01/12 05:43:07;;;;;;;;;;;0.00;99.90;;;;;;5052533;28;20265;-70
2021/01/12 05:45:36;;;;;;;;;;;0.00;99.90;;;;;;5047775;28;19904;-70
2021/01/12 05:48:02;;;;;;;;;;;-0.20;99.90;;;;;;5066006;28;19905;-70
2021/01/12 05:50:29;;;;;;;;;;;-0.20;99.90;;;;;;5062002;28;19912;-70
2021/01/12 05:53:04;;;;;;;;;;;-0.20;99.90;;;;;;5042188;28;19904;-70
2021/01/12 05:55:31;;;;;;;;;;;-0.20;99.90;;;;;;5063293;28;19912;-70
2021/01/12 05:57:59;;;;;;;;;;;-0.30;99.90;;;;;;5067742;28;20297;-70
2021/01/12 06:00:25;;;;;;;;;;;-0.40;99.90;;;;;;5059939;28;20353;-70
2021/01/12 06:02:51;;;;;;;;;;;-0.40;99.90;;;;;;5063891;28;20505;-70
2021/01/12 06:05:17;;;;;;;;;;;-0.40;99.90;;;;;;5063308;28;19950;-70
2021/01/12 06:07:43;;;;;;;;;;;-0.50;99.90;;;;;;5068383;28;19905;-70
2021/01/12 06:10:10;;;;;;;;;;;-0.50;99.90;;;;;;5066454;28;19916;-70
2021/01/12 06:12:36;;;;;;;;;;;-0.40;99.90;;;;;;5066969;28;19915;-70
2021/01/12 06:15:02;;;;;;;;;;;-0.50;99.90;;;;;;5067861;28;19904;-70
2021/01/12 06:17:30;;;;;;;;;;;-0.50;99.90;;;;;;5062275;28;20358;-70
2021/01/12 06:19:56;;;;;;;;;;;-0.50;99.90;;;;;;5068150;28;19916;-70
2021/01/12 06:22:23;;;;;;;;;;;-0.50;99.90;;;;;;5056485;28;19912;-70
2021/01/12 06:24:51;;;;;;;;;;;-0.50;99.90;;;;;;5064808;28;19939;-70
2021/01/12 06:27:28;;;;;;;;;;;-0.40;99.90;;;;;;5072281;28;20285;-70
2021/01/12 06:29:55;;;;;;;;;;;-0.40;99.90;;;;;;5072774;28;20395;-70
2021/01/12 06:32:21;;;;;;;;;;;-0.40;99.90;;;;;;5041739;28;19904;-70
2021/01/12 06:34:54;;;;;;;;;;;-0.40;99.90;;;;;;5071809;28;19917;-70
2021/01/12 06:37:20;;;;;;;;;;;-0.40;99.90;;;;;;5059932;28;19905;-70
2021/01/12 06:39:50;;;;;;;;;;;-0.30;99.90;;;;;;5052555;28;19963;-70
2021/01/12 06:42:17;;;;;;;;;;;-0.30;99.90;;;;;;5052395;28;19917;-70
2021/01/12 06:44:43;;;;;;;;;;;-0.40;99.90;;;;;;5050443;28;19916;-70
2021/01/12 06:47:09;;;;;;;;;;;-0.40;99.90;;;;;;5055013;28;19908;-70
2021/01/12 06:49:35;;;;;;;;;;;-0.50;99.90;;;;;;5059674;28;19916;-70
2021/01/12 06:52:05;;;;;;;;;;;-0.50;99.90;;;;;;5053551;28;19916;-70
2021/01/12 06:54:31;;;;;;;;;;;-0.50;99.90;;;;;;5056679;28;20289;-70
2021/01/12 06:57:01;;;;;;;;;;;-0.50;99.90;;;;;;5057498;28;19909;-70
2021/01/12 06:59:33;;;;;;;;;;;-0.50;99.90;;;;;;5058403;28;20630;-69
2021/01/12 07:01:59;;;;;;;;;;;-0.50;99.90;;;;;;5068860;28;19908;-70
2021/01/12 07:04:29;;;;;;;;;;;-0.60;99.90;;;;;;5061553;28;19912;-70
2021/01/12 07:06:58;;;;;;;;;;;-0.70;99.90;;;;;;5062616;28;19905;-70
2021/01/12 07:09:24;;;;;;;;;;;-0.70;99.90;;;;;;5060349;28;19915;-70
2021/01/12 07:11:50;;;;;;;;;;;-0.70;99.90;;;;;;5055113;28;19908;-70
2021/01/12 07:14:25;;;;;;;;;;;-0.60;99.90;;;;;;5050808;28;19909;-70
2021/01/12 07:16:51;;;;;;;;;;;-0.70;99.90;;;;;;5050662;28;19932;-70
2021/01/12 07:19:17;;;;;;;;;;;-0.80;99.90;;;;;;5050459;28;20557;-70
2021/01/12 07:21:43;;;;;;;;;;;-0.70;99.90;;;;;;5052888;28;19908;-70
2021/01/12 07:24:09;;;;;;;;;;;-0.80;99.90;;;;;;5050206;28;19923;-70
2021/01/12 07:26:35;;;;;;;;;;;-0.80;99.90;;;;;;5051730;28;19916;-70
2021/01/12 07:29:04;;;;;;;;;;;-0.80;99.90;;;;;;5051954;28;20486;-70
2021/01/12 07:31:30;;;;;;;;;;;-0.80;99.90;;;;;;5051136;28;19916;-70
2021/01/12 07:33:56;;;;;;;;;;;-0.80;99.90;;;;;;5051924;28;19909;-71
2021/01/12 07:36:23;;;;;;;;;;;-0.80;99.90;;;;;;5054211;28;19919;-70
2021/01/12 07:38:50;;;;;;;;;;;-0.70;99.90;;;;;;5059536;28;19924;-70
2021/01/12 07:41:16;;;;;;;;;;;-0.70;99.90;;;;;;5062011;28;19913;-70
2021/01/12 07:43:42;;;;;;;;;;;-0.70;99.90;;;;;;5051351;28;19919;-70
2021/01/12 07:46:07;;;;;;;;;;;-0.70;99.90;;;;;;5054434;28;19962;-70
2021/01/12 07:48:33;;;;;;;;;;;-0.60;99.90;;;;;;5056821;28;19938;-70
2021/01/12 07:51:00;;;;;;;;;;;-0.60;99.90;;;;;;5051898;28;19913;-70
2021/01/12 07:53:26;;;;;;;;;;;-0.70;99.90;;;;;;5053493;28;20281;-70
2021/01/12 07:55:52;;;;;;;;;;;-0.60;99.90;;;;;;5038588;28;19962;-70
2021/01/12 07:58:18;;;;;;;;;;;-0.60;99.90;;;;;;5057399;28;19984;-70
2021/01/12 08:00:47;;;;;;;;;;;-0.70;99.90;;;;;;5056849;28;19929;-70
2021/01/12 08:03:13;;;;;;;;;;;-0.70;99.90;;;;;;5050643;28;19917;-70
2021/01/12 08:05:39;;;;;;;;;;;-0.70;99.90;;;;;;5055774;28;19923;-70
2021/01/12 08:08:06;;;;;;;;;;;-0.80;99.90;;;;;;5053258;28;20381;-70
2021/01/12 08:10:33;;;;;;;;;;;-0.70;99.90;;;;;;5054211;28;20325;-70
2021/01/12 08:13:06;;;;;;;;;;;-0.70;99.90;;;;;;5054186;28;20033;-70
2021/01/12 08:15:32;;;;;;;;;;;-0.70;99.90;;;;;;5053556;28;19905;-70
2021/01/12 08:17:58;;;;;;;;;;;-0.70;99.90;;;;;;5054197;28;19931;-70
2021/01/12 08:20:24;;;;;;;;;;;-0.80;99.90;;;;;;5054476;28;20373;-70
2021/01/12 08:22:50;;;;;;;;;;;-0.80;99.90;;;;;;5053327;28;20389;-70
2021/01/12 08:25:16;;;;;;;;;;;-0.90;99.90;;;;;;5054104;28;19920;-70
2021/01/12 08:27:52;;;;;;;;;;;-0.80;99.90;;;;;;5054073;28;19920;-69
2021/01/12 08:30:19;;;;;;;;;;;-0.70;99.90;;;;;;5054254;28;19909;-70
2021/01/12 08:32:45;;;;;;;;;;;-0.60;99.90;;;;;;5053245;28;20392;-70
2021/01/12 08:35:12;;;;;;;;;;;-0.50;99.90;;;;;;5052402;28;19909;-70
2021/01/12 08:37:39;;;;;;;;;;;-0.50;99.90;;;;;;5052588;28;20348;-70
2021/01/12 08:40:08;;;;;;;;;;;-0.40;99.90;;;;;;5053640;28;19920;-70
2021/01/12 08:42:38;;;;;;;;;;;-0.40;99.90;;;;;;5053349;28;19908;-70
2021/01/12 08:45:16;;;;;;;;;;;-0.40;99.90;;;;;;5050062;28;19911;-70
2021/01/12 08:47:42;;;;;;;;;;;-0.30;99.90;;;;;;5054983;28;19909;-70
2021/01/12 08:50:08;;;;;;;;;;;-0.20;99.90;;;;;;5054641;28;20354;-70
2021/01/12 08:52:38;;;;;;;;;;;-0.20;99.90;;;;;;5052870;28;20361;-70
2021/01/12 08:55:20;;;;;;;;;;;-0.20;99.90;;;;;;5050381;28;20273;-70
2021/01/12 08:58:01;;;;;;;;;;;-0.10;99.90;;;;;;5051868;28;20264;-70
2021/01/12 09:00:27;;;;;;;;;;;0.00;99.90;;;;;;5052759;28;19931;-70
2021/01/12 09:02:54;;;;;;;;;;;0.00;99.90;;;;;;5054673;28;19916;-71
2021/01/12 09:05:20;;;;;;;;;;;0.10;99.90;;;;;;5052716;28;20369;-71
2021/01/12 09:07:46;;;;;;;;;;;0.10;99.90;;;;;;5053147;28;19912;-71
2021/01/12 09:10:12;;;;;;;;;;;0.20;99.90;;;;;;5054490;28;19908;-71
2021/01/12 09:12:39;;;;;;;;;;;0.20;99.90;;;;;;5054281;28;19912;-71
2021/01/12 09:15:05;;;;;;;;;;;0.30;99.90;;;;;;5052701;28;19904;-71
2021/01/12 09:17:31;;;;;;;;;;;0.40;99.90;;;;;;5052229;28;19909;-71
2021/01/12 09:19:57;;;;;;;;;;;0.50;99.90;;;;;;5047208;28;19932;-71
2021/01/12 09:22:28;;;;;;;;;;;0.60;99.90;;;;;;5054017;28;19913;-71
2021/01/12 09:24:54;;;;;;;;;;;0.70;99.90;;;;;;5054334;28;20370;-71
2021/01/12 09:27:21;;;;;;;;;;;0.60;99.90;;;;;;5036960;28;19920;-71
2021/01/12 09:29:47;;;;;;;;;;;0.70;99.90;;;;;;5053436;28;19913;-71
2021/01/12 09:32:23;;;;;;;;;;;0.70;99.90;;;;;;5053992;28;20254;-71
2021/01/12 09:34:49;;;;;;;;;;;0.70;99.90;;;;;;5053761;28;19908;-71
2021/01/12 09:37:15;;;;;;;;;;;0.70;99.90;;;;;;5053130;28;19916;-71
2021/01/12 09:39:42;;;;;;;;;;;0.70;99.90;;;;;;5053802;28;19917;-72
2021/01/12 09:42:09;;;;;;;;;;;0.70;99.90;;;;;;5053894;28;19904;-71
2021/01/12 09:44:35;;;;;;;;;;;0.70;99.90;;;;;;5053352;28;19916;-71
2021/01/12 09:47:01;;;;;;;;;;;0.90;99.90;;;;;;5053250;28;19967;-71
2021/01/12 09:49:27;;;;;;;;;;;1.00;99.90;;;;;;5051714;28;19905;-71
2021/01/12 09:51:53;;;;;;;;;;;1.10;99.90;;;;;;5053384;28;19908;-71
2021/01/12 09:54:19;;;;;;;;;;;1.10;99.90;;;;;;5053993;28;19912;-71
2021/01/12 09:56:45;;;;;;;;;;;1.20;99.90;;;;;;5053389;28;19971;-71
2021/01/12 09:59:11;;;;;;;;;;;1.20;99.90;;;;;;5051518;28;19940;-72
2021/01/12 10:01:37;;;;;;;;;;;1.20;99.90;;;;;;5052739;28;19924;-72
2021/01/12 10:04:03;;;;;;;;;;;1.20;99.90;;;;;;5052389;28;19912;-72
2021/01/12 10:06:31;;;;;;;;;;;1.20;99.90;;;;;;5051525;28;20277;-72
2021/01/12 10:08:56;;;;;;;;;;;1.20;99.90;;;;;;5052245;28;20384;-72
2021/01/12 10:11:23;;;;;;;;;;;1.20;99.90;;;;;;5056367;28;19912;-73
2021/01/12 10:13:49;;;;;;;;;;;1.20;99.90;;;;;;5052724;28;19972;-73
2021/01/12 10:16:24;;;;;;;;;;;1.30;99.90;;;;;;5053140;28;19908;-72
2021/01/12 10:18:50;;;;;;;;;;;1.40;99.90;;;;;;5051672;28;19931;-73
2021/01/12 10:21:17;;;;;;;;;;;1.40;99.90;;;;;;5050759;28;19913;-73
2021/01/12 10:23:43;;;;;;;;;;;1.50;99.90;;;;;;5051651;28;19913;-73
2021/01/12 10:26:16;;;;;;;;;;;1.50;99.90;;;;;;5052986;28;19905;-73
2021/01/12 10:28:42;;;;;;;;;;;1.60;99.90;;;;;;5051786;28;19912;-74
2021/01/12 10:31:13;;;;;;;;;;;1.80;99.90;;;;;;5052008;28;19909;-74
2021/01/12 10:33:40;;;;;;;;;;;1.90;99.90;;;;;;5051512;28;19959;-74
2021/01/12 10:36:06;;;;;;;;;;;2.00;99.90;;;;;;5052224;28;19912;-75
2021/01/12 10:38:32;;;;;;;;;;;2.00;99.90;;;;;;5050883;28;19931;-75
2021/01/12 10:40:58;;;;;;;;;;;2.00;99.90;;;;;;5050012;28;19920;-74
2021/01/12 10:43:24;;;;;;;;;;;2.20;99.90;;;;;;5058609;28;19959;-74
2021/01/12 10:45:51;;;;;;;;;;;2.30;99.90;;;;;;5051620;28;19920;-74
2021/01/12 10:48:17;;;;;;;;;;;2.30;99.90;;;;;;5049865;28;19991;-74
2021/01/12 10:50:43;;;;;;;;;;;2.30;99.90;;;;;;5051301;28;19913;-74
2021/01/12 10:53:09;;;;;;;;;;;2.30;99.90;;;;;;5050892;28;20124;-74
2021/01/12 10:55:35;;;;;;;;;;;2.40;99.90;;;;;;5052921;28;20354;-74
2021/01/12 10:58:01;;;;;;;;;;;2.50;99.90;;;;;;5054218;28;19927;-73
2021/01/12 11:00:27;;;;;;;;;;;2.60;99.90;;;;;;5060723;28;19928;-73
2021/01/12 11:02:54;;;;;;;;;;;2.60;99.90;;;;;;5060275;28;19908;-72
2021/01/12 11:05:20;;;;;;;;;;;2.70;99.90;;;;;;5061516;28;19924;-72
2021/01/12 11:07:46;;;;;;;;;;;2.70;99.90;;;;;;5059015;28;20273;-72
2021/01/12 11:10:12;;;;;;;;;;;2.70;99.90;;;;;;5053699;28;19912;-72
2021/01/12 11:12:38;;;;;;;;;;;2.70;99.90;;;;;;5058391;28;19912;-72
2021/01/12 11:15:06;;;;;;;;;;;2.80;99.90;;;;;;5050130;28;19913;-72
2021/01/12 11:17:33;;;;;;;;;;;2.70;99.90;;;;;;5052350;28;19920;-72
2021/01/12 11:20:00;;;;;;;;;;;2.60;99.90;;;;;;5052234;28;20373;-72
2021/01/12 11:22:29;;;;;;;;;;;2.50;99.90;;;;;;5052020;28;19913;-72
2021/01/12 11:24:55;;;;;;;;;;;2.50;99.90;;;;;;5052171;28;19913;-72
2021/01/12 11:27:21;;;;;;;;;;;2.40;99.90;;;;;;5037957;28;19924;-72
2021/01/12 11:29:47;;;;;;;;;;;2.40;99.90;;;;;;5051778;28;19912;-72
2021/01/12 11:32:13;;;;;;;;;;;2.50;99.90;;;;;;5051388;28;19926;-72
2021/01/12 11:34:39;;;;;;;;;;;2.50;99.90;;;;;;5053237;28;19913;-72
2021/01/12 11:37:09;;;;;;;;;;;2.60;99.90;;;;;;5055830;28;19905;-72
2021/01/12 11:39:35;;;;;;;;;;;2.70;99.90;;;;;;5054298;28;19924;-72
2021/01/12 11:42:01;;;;;;;;;;;2.70;99.90;;;;;;5044660;28;19916;-72
2021/01/12 11:44:27;;;;;;;;;;;2.70;99.90;;;;;;5035484;28;19913;-73
2021/01/12 11:46:53;;;;;;;;;;;2.70;99.90;;;;;;5049761;28;19913;-72
2021/01/12 11:49:19;;;;;;;;;;;2.80;99.90;;;;;;5054723;28;19913;-72
2021/01/12 11:51:46;;;;;;;;;;;2.80;99.90;;;;;;5055569;28;19913;-72
2021/01/12 11:54:12;;;;;;;;;;;2.70;99.90;;;;;;5055760;28;19920;-71
2021/01/12 11:56:38;;;;;;;;;;;2.60;99.90;;;;;;5052969;28;19909;-71
2021/01/12 11:59:05;;;;;;;;;;;2.40;99.90;;;;;;5057210;28;19944;-71
2021/01/12 12:01:41;;;;;;;;;;;2.20;99.90;;;;;;5058425;28;19975;-72
2021/01/12 12:04:07;;;;;;;;;;;2.10;99.90;;;;;;5053582;28;19908;-71
2021/01/12 12:06:32;;;;;;;;;;;2.00;99.90;;;;;;5054957;28;19912;-80
2021/01/12 12:08:58;;;;;;;;;;;1.90;99.90;;;;;;5052726;28;19917;-70
2021/01/12 12:11:25;;;;;;;;;;;1.90;99.90;;;;;;5053343;28;20375;-71
2021/01/12 12:13:51;;;;;;;;;;;1.80;99.90;;;;;;5053224;28;20358;-71
2021/01/12 12:16:18;;;;;;;;;;;1.70;99.90;;;;;;5052981;28;19913;-71
2021/01/12 12:18:44;;;;;;;;;;;1.70;99.90;;;;;;5052860;28;19927;-71
2021/01/12 12:21:12;;;;;;;;;;;1.60;99.90;;;;;;5054533;28;19925;-71
2021/01/12 12:23:38;;;;;;;;;;;1.60;99.90;;;;;;5054102;28;19913;-71
2021/01/12 12:26:07;;;;;;;;;;;1.60;99.90;;;;;;5054460;28;19912;-71
2021/01/12 12:28:33;;;;;;;;;;;1.60;99.90;;;;;;5053382;28;19916;-71
2021/01/12 12:30:59;;;;;;;;;;;1.60;99.90;;;;;;5052123;28;19927;-71
2021/01/12 12:33:25;;;;;;;;;;;1.60;99.90;;;;;;5052652;28;19909;-71
2021/01/12 12:35:51;;;;;;;;;;;1.50;99.90;;;;;;5050891;28;20332;-71
2021/01/12 12:38:17;;;;;;;;;;;1.50;99.90;;;;;;5051156;28;19963;-71
2021/01/12 12:40:43;;;;;;;;;;;1.50;99.90;;;;;;5054142;28;19986;-71
2021/01/12 12:43:09;;;;;;;;;;;1.50;99.90;;;;;;5053282;28;19916;-71
2021/01/12 12:45:35;;;;;;;;;;;1.40;99.90;;;;;;5054205;28;19917;-71
2021/01/12 12:48:03;;;;;;;;;;;1.40;99.90;;;;;;5053899;28;19941;-71
2021/01/12 12:50:29;;;;;;;;;;;1.40;99.90;;;;;;5054208;28;19913;-71
2021/01/12 12:52:57;;;;;;;;;;;1.40;99.90;;;;;;5054396;28;20012;-71
2021/01/12 12:55:23;;;;;;;;;;;1.40;99.90;;;;;;5054402;28;19913;-71
2021/01/12 12:57:49;;;;;;;;;;;1.40;99.90;;;;;;5047734;28;20285;-71
2021/01/12 13:00:16;;;;;;;;;;;1.30;99.90;;;;;;5055108;28;19921;-71
2021/01/12 13:02:42;;;;;;;;;;;1.30;99.90;;;;;;5059704;28;19927;-71
2021/01/12 13:05:08;;;;;;;;;;;1.30;99.90;;;;;;5062864;28;20285;-71
2021/01/12 13:07:35;;;;;;;;;;;1.30;99.90;;;;;;5063421;28;19920;-71
2021/01/12 13:10:01;;;;;;;;;;;1.30;99.90;;;;;;5062273;28;19916;-71
2021/01/12 13:12:27;;;;;;;;;;;1.20;99.90;;;;;;5062597;28;19912;-72
2021/01/12 13:14:55;;;;;;;;;;;1.20;99.90;;;;;;5053510;28;19912;-72
2021/01/12 13:17:23;;;;;;;;;;;1.20;99.90;;;;;;5053625;28;20277;-72
2021/01/12 13:19:49;;;;;;;;;;;1.20;99.90;;;;;;5059322;28;20388;-71
2021/01/12 13:22:15;;;;;;;;;;;1.20;99.90;;;;;;5062186;28;19917;-72
2021/01/12 13:24:41;;;;;;;;;;;1.20;99.90;;;;;;5061320;28;20293;-72
2021/01/12 13:27:07;;;;;;;;;;;1.20;99.90;;;;;;5055541;28;19928;-72
2021/01/12 13:29:33;;;;;;;;;;;1.10;99.90;;;;;;5056618;28;20373;-73
2021/01/12 13:32:07;;;;;;;;;;;1.10;99.90;;;;;;5054682;28;20302;-72
2021/01/12 13:34:33;;;;;;;;;;;1.10;99.90;;;;;;5056370;28;19916;-72
2021/01/12 13:36:59;;;;;;;;;;;1.10;99.90;;;;;;5057290;28;20646;-72
2021/01/12 13:39:25;;;;;;;;;;;1.10;99.90;;;;;;5056273;28;20404;-72
2021/01/12 13:41:51;;;;;;;;;;;1.10;99.90;;;;;;5052742;28;19917;-72
2021/01/12 13:44:17;;;;;;;;;;;1.10;99.90;;;;;;5054829;28;19919;-72
2021/01/12 13:46:43;;;;;;;;;;;1.10;99.90;;;;;;5052478;28;19913;-72
2021/01/12 13:49:09;;;;;;;;;;;1.10;99.90;;;;;;5051287;28;19916;-73
2021/01/12 13:51:39;;;;;;;;;;;1.10;99.90;;;;;;5051917;28;19920;-73
2021/01/12 13:54:05;;;;;;;;;;;1.10;99.90;;;;;;5073588;28;19927;-72
2021/01/12 13:56:31;;;;;;;;;;;1.10;99.90;;;;;;5060984;28;20280;-72
2021/01/12 13:58:57;;;;;;;;;;;1.10;99.90;;;;;;5058935;28;19909;-72
2021/01/12 14:01:24;;;;;;;;;;;1.10;99.90;;;;;;5053690;28;19917;-72
2021/01/12 14:03:50;;;;;;;;;;;1.10;99.90;;;;;;5049388;28;19909;-73
2021/01/12 14:06:16;;;;;;;;;;;1.10;99.90;;;;;;5049758;28;19916;-73
2021/01/12 14:08:42;;;;;;;;;;;1.10;99.90;;;;;;5030268;28;19963;-72
2021/01/12 14:11:08;;;;;;;;;;;1.10;99.90;;;;;;5050626;28;20289;-72
2021/01/12 14:13:34;;;;;;;;;;;1.10;99.90;;;;;;5050762;28;19905;-72
2021/01/12 14:16:00;;;;;;;;;;;1.10;99.90;;;;;;5049332;28;20359;-72
2021/01/12 14:18:32;;;;;;;;;;;1.10;99.90;;;;;;5050029;28;19909;-72
2021/01/12 14:20:59;;;;;;;;;;;1.10;99.90;;;;;;5048616;28;20366;-72
2021/01/12 14:23:26;;;;;;;;;;;1.10;99.90;;;;;;5049684;28;20354;-72